createdAt,value
2022-10-12T00:02:31.175Z,13.10
2022-10-12T00:05:18.244Z,13.00
2022-10-12T00:08:05.302Z,13.00
2022-10-12T00:10:52.274Z,13.10
2022-10-12T00:13:39.200Z,13.10
2022-10-12T00:16:30.868Z,13.10
2022-10-12T00:19:17.785Z,13.10
2022-10-12T00:22:04.921Z,13.10
2022-10-12T00:24:53.516Z,13.10
2022-10-12T00:27:40.516Z,13.10
2022-10-12T00:30:27.428Z,13.20
2022-10-12T00:33:14.316Z,13.20
2022-10-12T00:36:15.157Z,13.20
2022-10-12T00:39:04.928Z,13.10
2022-10-12T00:41:51.823Z,13.10
2022-10-12T00:44:41.488Z,13.00
2022-10-12T00:47:35.118Z,13.00
2022-10-12T00:50:32.439Z,13.00
2022-10-12T00:53:25.785Z,13.00
2022-10-12T00:56:19.620Z,13.00
2022-10-12T00:59:12.042Z,13.00
2022-10-12T01:01:59.040Z,13.00
2022-10-12T01:04:46.209Z,13.00
2022-10-12T01:07:33.324Z,12.90
2022-10-12T01:10:20.388Z,13.00
2022-10-12T01:13:07.716Z,12.90
2022-10-12T01:16:05.132Z,13.00
2022-10-12T01:19:05.304Z,12.90
2022-10-12T01:22:04.825Z,12.80
2022-10-12T01:24:55.147Z,12.80
2022-10-12T01:27:48.931Z,12.80
2022-10-12T01:30:43.476Z,12.80
2022-10-12T01:33:47.450Z,12.80
2022-10-12T01:36:41.472Z,12.80
2022-10-12T01:39:38.763Z,12.80
2022-10-12T01:42:36.903Z,12.80
2022-10-12T01:45:23.950Z,12.80
2022-10-12T01:48:10.959Z,12.80
2022-10-12T01:51:02.437Z,12.80
2022-10-12T01:54:11.111Z,12.80
2022-10-12T01:57:08.029Z,12.70
2022-10-12T02:00:13.986Z,12.70
2022-10-12T02:03:29.312Z,12.70
2022-10-12T02:06:19.520Z,12.70
2022-10-12T02:09:14.815Z,12.80
2022-10-12T02:12:12.171Z,12.80
2022-10-12T02:15:02.540Z,12.80
2022-10-12T02:17:52.488Z,12.80
2022-10-12T02:20:42.239Z,12.80
2022-10-12T02:23:29.993Z,12.90
2022-10-12T02:26:18.536Z,12.90
2022-10-12T02:29:10.092Z,12.90
2022-10-12T02:32:00.490Z,12.90
2022-10-12T02:35:25.527Z,12.90
2022-10-12T02:38:16.026Z,12.90
2022-10-12T02:41:08.214Z,12.90
2022-10-12T02:44:00.107Z,12.90
2022-10-12T02:46:49.663Z,13.00
2022-10-12T02:49:37.706Z,13.00
2022-10-12T02:52:25.114Z,12.90
2022-10-12T02:55:12.155Z,13.00
2022-10-12T02:57:59.107Z,13.00
2022-10-12T03:00:46.860Z,13.00
2022-10-12T03:03:33.874Z,13.00
2022-10-12T03:06:20.972Z,13.00
2022-10-12T03:09:08.390Z,13.00
2022-10-12T03:11:55.315Z,13.10
2022-10-12T03:14:42.253Z,13.20
2022-10-12T03:17:29.159Z,13.20
2022-10-12T03:20:16.262Z,13.20
2022-10-12T03:23:03.415Z,13.30
2022-10-12T03:25:50.383Z,13.30
2022-10-12T03:28:37.320Z,13.30
2022-10-12T03:31:24.349Z,13.30
2022-10-12T03:34:11.280Z,13.30
2022-10-12T03:36:58.190Z,13.40
2022-10-12T03:39:45.693Z,13.40
2022-10-12T03:42:32.602Z,13.40
2022-10-12T03:45:19.501Z,13.40
2022-10-12T03:48:06.996Z,13.40
2022-10-12T03:50:53.935Z,13.40
2022-10-12T03:53:45.336Z,13.40
2022-10-12T03:56:32.702Z,13.40
2022-10-12T03:59:19.655Z,13.40
2022-10-12T04:02:06.644Z,13.40
2022-10-12T04:04:54.274Z,13.50
2022-10-12T04:07:41.376Z,13.50
2022-10-12T04:10:28.349Z,13.50
2022-10-12T04:13:15.432Z,13.50
2022-10-12T04:16:04.464Z,13.50
2022-10-12T04:18:51.505Z,13.50
2022-10-12T04:21:38.427Z,13.50
2022-10-12T04:24:25.336Z,13.50
2022-10-12T04:27:13.442Z,13.40
2022-10-12T04:30:00.418Z,13.40
2022-10-12T04:32:47.394Z,13.50
2022-10-12T04:35:34.340Z,13.50
2022-10-12T04:38:21.251Z,13.50
2022-10-12T04:41:08.220Z,13.50
2022-10-12T04:43:55.466Z,13.40
2022-10-12T04:46:42.432Z,13.40
2022-10-12T04:49:29.403Z,13.40
2022-10-12T04:52:16.322Z,13.40
2022-10-12T04:55:03.651Z,13.40
2022-10-12T04:57:50.629Z,13.40
2022-10-12T05:00:37.545Z,13.50
2022-10-12T05:03:24.693Z,13.60
2022-10-12T05:06:11.643Z,13.60
2022-10-12T05:08:58.578Z,13.60
2022-10-12T05:11:45.604Z,13.60
2022-10-12T05:14:35.094Z,13.70
2022-10-12T05:17:22.989Z,13.60
2022-10-12T05:20:11.370Z,13.70
2022-10-12T05:22:58.958Z,13.70
2022-10-12T05:25:45.989Z,13.70
2022-10-12T05:28:36.992Z,13.70
2022-10-12T05:31:26.889Z,13.70
2022-10-12T05:34:13.823Z,13.70
2022-10-12T05:37:01.230Z,13.70
2022-10-12T05:39:49.722Z,13.70
2022-10-12T05:42:36.950Z,13.70
2022-10-12T05:45:24.145Z,13.70
2022-10-12T05:48:11.163Z,13.70
2022-10-12T05:50:58.277Z,13.70
2022-10-12T05:53:45.456Z,13.80
2022-10-12T05:56:32.403Z,13.80
2022-10-12T05:59:19.484Z,13.80
2022-10-12T06:02:07.215Z,13.70
2022-10-12T06:04:54.215Z,13.70
2022-10-12T06:07:41.213Z,13.80
2022-10-12T06:10:30.101Z,13.80
2022-10-12T06:13:19.700Z,13.80
2022-10-12T06:16:06.982Z,13.80
2022-10-12T06:18:53.989Z,13.90
2022-10-12T06:21:40.869Z,13.90
2022-10-12T06:24:27.835Z,14.00
2022-10-12T06:27:14.855Z,14.00
2022-10-12T06:30:02.050Z,13.90
2022-10-12T06:32:48.979Z,14.00
2022-10-12T06:35:35.942Z,14.00
2022-10-12T06:38:23.131Z,14.00
2022-10-12T06:41:10.092Z,14.00
2022-10-12T06:43:57.093Z,14.00
2022-10-12T06:46:44.021Z,14.00
2022-10-12T06:49:31.012Z,14.00
2022-10-12T06:52:17.919Z,14.00
2022-10-12T06:55:05.783Z,14.10
2022-10-12T06:57:52.761Z,14.10
2022-10-12T07:00:39.701Z,14.20
2022-10-12T07:03:26.867Z,14.20
2022-10-12T07:06:14.475Z,14.20
2022-10-12T07:09:01.965Z,14.30
2022-10-12T07:11:48.862Z,14.30
2022-10-12T07:14:35.807Z,14.30
2022-10-12T07:17:22.719Z,14.50
2022-10-12T07:20:09.805Z,14.40
2022-10-12T07:22:56.782Z,14.40
2022-10-12T07:25:53.418Z,14.50
2022-10-12T07:28:40.403Z,14.50
2022-10-12T07:31:27.426Z,14.60
2022-10-12T07:34:14.301Z,14.60
2022-10-12T07:37:01.275Z,14.50
2022-10-12T07:39:48.972Z,14.60
2022-10-12T07:42:35.952Z,14.60
2022-10-12T07:45:23.113Z,14.60
2022-10-12T07:48:10.357Z,14.60
2022-10-12T07:51:07.159Z,14.70
2022-10-12T07:53:54.300Z,14.70
2022-10-12T07:56:41.661Z,14.70
2022-10-12T07:59:28.602Z,14.80
2022-10-12T08:02:15.544Z,14.80
2022-10-12T08:05:02.502Z,14.80
2022-10-12T08:07:50.541Z,14.90
2022-10-12T08:10:37.706Z,14.90
2022-10-12T08:13:24.636Z,14.90
2022-10-12T08:16:14.476Z,14.90
2022-10-12T08:19:01.391Z,14.90
2022-10-12T08:21:49.823Z,15.00
2022-10-12T08:24:36.788Z,15.10
2022-10-12T08:27:23.817Z,15.10
2022-10-12T08:30:11.344Z,15.20
2022-10-12T08:32:58.281Z,15.20
2022-10-12T08:35:47.552Z,15.30
2022-10-12T08:38:38.743Z,15.30
2022-10-12T08:42:00.046Z,15.40
2022-10-12T08:45:10.171Z,15.50
2022-10-12T08:48:25.563Z,15.60
2022-10-12T08:51:20.075Z,15.60
2022-10-12T08:54:11.851Z,15.70
2022-10-12T08:56:58.791Z,15.80
2022-10-12T08:59:46.747Z,15.80
2022-10-12T09:02:55.788Z,15.90
2022-10-12T09:05:57.012Z,16.00
2022-10-12T09:09:08.854Z,16.10
2022-10-12T09:12:03.875Z,16.10
2022-10-12T09:14:54.687Z,16.10
2022-10-12T09:17:54.536Z,16.20
2022-10-12T09:20:50.431Z,16.30
2022-10-12T09:23:42.176Z,16.40
2022-10-12T09:26:40.123Z,16.50
2022-10-12T09:29:31.068Z,16.60
2022-10-12T09:32:31.315Z,16.60
2022-10-12T09:35:18.670Z,16.70
2022-10-12T09:38:06.594Z,16.70
2022-10-12T09:40:53.567Z,16.80
2022-10-12T09:43:40.534Z,16.80
2022-10-12T09:46:42.661Z,16.90
2022-10-12T09:49:42.018Z,16.90
2022-10-12T09:52:44.844Z,16.90
2022-10-12T09:55:31.761Z,17.00
2022-10-12T09:58:20.977Z,16.90
2022-10-12T10:01:16.359Z,17.00
2022-10-12T10:04:17.356Z,17.00
2022-10-12T10:07:13.346Z,17.10
2022-10-12T10:10:29.646Z,17.10
2022-10-12T10:13:17.813Z,17.20
2022-10-12T10:16:07.721Z,17.20
2022-10-12T10:18:54.600Z,17.40
2022-10-12T10:21:41.621Z,17.40
2022-10-12T10:24:32.231Z,17.40
2022-10-12T10:27:39.749Z,17.40
2022-10-12T10:30:33.886Z,17.40
2022-10-12T10:33:23.435Z,17.50
2022-10-12T10:36:22.071Z,17.50
2022-10-12T10:39:18.574Z,17.60
2022-10-12T10:42:33.286Z,17.60
2022-10-12T10:45:28.946Z,17.60
2022-10-12T10:48:18.797Z,17.60
2022-10-12T10:51:07.001Z,17.70
2022-10-12T10:53:53.971Z,17.70
2022-10-12T10:56:41.262Z,17.70
2022-10-12T10:59:33.365Z,17.70
2022-10-12T11:02:51.804Z,17.80
2022-10-12T11:05:44.870Z,17.80
2022-10-12T11:08:35.622Z,17.80
2022-10-12T11:11:26.961Z,17.80
2022-10-12T11:14:20.595Z,17.80
2022-10-12T11:17:17.080Z,17.90
2022-10-12T11:20:31.996Z,17.90
2022-10-12T11:23:49.820Z,18.00
2022-10-12T11:26:43.368Z,18.10
2022-10-12T11:29:30.540Z,18.10
2022-10-12T11:32:34.618Z,18.00
2022-10-12T11:35:29.616Z,18.00
2022-10-12T11:38:38.071Z,18.10
2022-10-12T11:42:09.698Z,18.10
2022-10-12T11:44:55.390Z,18.10
2022-10-12T11:47:47.186Z,18.00
2022-10-12T11:50:40.877Z,18.00
2022-10-12T11:53:33.735Z,18.00
2022-10-12T11:56:29.772Z,18.00
2022-10-12T11:59:34.047Z,18.00
2022-10-12T12:02:33.509Z,17.90
2022-10-12T12:05:20.909Z,17.80
2022-10-12T12:08:21.748Z,18.00
2022-10-12T12:11:21.576Z,17.90
2022-10-12T12:14:26.892Z,17.90
2022-10-12T12:17:20.426Z,17.80
2022-10-12T12:20:44.727Z,17.80
2022-10-12T12:23:51.319Z,17.80
2022-10-12T12:26:38.302Z,18.00
2022-10-12T12:29:27.809Z,18.00
2022-10-12T12:32:14.814Z,18.10
2022-10-12T12:35:01.900Z,18.10
2022-10-12T12:37:57.490Z,18.10
2022-10-12T12:41:14.660Z,18.20
2022-10-12T12:44:04.276Z,18.20
2022-10-12T12:46:54.026Z,18.20
2022-10-12T12:49:54.044Z,18.20
2022-10-12T12:52:41.118Z,18.20
2022-10-12T12:55:58.561Z,18.20
2022-10-12T12:58:58.888Z,18.20
2022-10-12T13:02:12.316Z,18.30
2022-10-12T13:05:26.327Z,18.30
2022-10-12T13:08:30.473Z,18.30
2022-10-12T13:11:43.360Z,18.30
2022-10-12T13:14:39.172Z,18.30
2022-10-12T13:17:48.145Z,18.30
2022-10-12T13:20:38.765Z,18.40
2022-10-12T13:23:27.562Z,18.40
2022-10-12T13:26:20.085Z,18.40
2022-10-12T13:29:19.519Z,18.40
2022-10-12T13:32:32.386Z,18.40
2022-10-12T13:35:45.976Z,18.40
2022-10-12T13:38:34.804Z,18.40
2022-10-12T13:41:22.018Z,18.50
2022-10-12T13:44:23.125Z,18.50
2022-10-12T13:47:26.091Z,18.40
2022-10-12T13:50:20.825Z,18.40
2022-10-12T13:53:15.884Z,18.50
2022-10-12T13:56:10.063Z,18.50
2022-10-12T13:59:00.362Z,18.50
2022-10-12T14:02:00.794Z,18.50
2022-10-12T14:04:47.869Z,18.50
2022-10-12T14:07:38.425Z,18.60
2022-10-12T14:10:30.251Z,18.60
2022-10-12T14:13:33.126Z,18.50
2022-10-12T14:16:20.195Z,18.50
2022-10-12T14:19:35.114Z,18.50
2022-10-12T14:22:31.243Z,18.50
2022-10-12T14:25:24.366Z,18.50
2022-10-12T14:28:30.689Z,18.50
2022-10-12T14:31:17.891Z,18.50
2022-10-12T14:34:27.198Z,18.50
2022-10-12T14:37:17.160Z,18.40
2022-10-12T14:40:23.026Z,18.40
2022-10-12T14:43:12.921Z,18.30
2022-10-12T14:46:00.081Z,18.40
2022-10-12T14:48:47.028Z,18.40
2022-10-12T14:51:33.975Z,18.40
2022-10-12T14:54:21.397Z,18.40
2022-10-12T14:57:16.188Z,18.40
2022-10-12T15:00:04.250Z,18.40
2022-10-12T15:02:52.072Z,18.40
2022-10-12T15:05:39.005Z,18.40
2022-10-12T15:08:25.984Z,18.40
2022-10-12T15:11:14.098Z,18.40
2022-10-12T15:14:01.127Z,18.40
2022-10-12T15:16:48.113Z,18.30
2022-10-12T15:19:35.050Z,18.40
2022-10-12T15:22:23.610Z,18.30
2022-10-12T15:25:41.635Z,18.30
2022-10-12T15:28:29.840Z,18.30
2022-10-12T15:31:18.558Z,18.30
2022-10-12T15:34:12.396Z,18.20
2022-10-12T15:36:59.445Z,18.20
2022-10-12T15:39:46.352Z,18.20
2022-10-12T15:42:33.243Z,18.20
2022-10-12T15:45:28.836Z,18.20
2022-10-12T15:48:15.747Z,18.10
2022-10-12T15:51:17.477Z,18.10
2022-10-12T15:54:04.499Z,18.00
2022-10-12T15:56:51.474Z,18.00
2022-10-12T15:59:38.389Z,17.90
2022-10-12T16:02:25.337Z,17.90
2022-10-12T16:05:23.087Z,17.90
2022-10-12T16:08:10.081Z,17.80
2022-10-12T16:10:57.584Z,17.80
2022-10-12T16:13:51.086Z,17.70
2022-10-12T16:16:40.985Z,17.70
2022-10-12T16:19:27.908Z,17.60
2022-10-12T16:22:14.942Z,17.60
2022-10-12T16:25:03.298Z,17.50
2022-10-12T16:27:55.638Z,17.50
2022-10-12T16:30:42.807Z,17.50
2022-10-12T16:33:29.772Z,17.50
2022-10-12T16:36:17.248Z,17.40
2022-10-12T16:39:04.229Z,17.30
2022-10-12T16:41:51.714Z,17.30
2022-10-12T16:44:38.643Z,17.20
2022-10-12T16:47:25.957Z,17.20
2022-10-12T16:50:13.030Z,17.10
2022-10-12T16:53:00.389Z,17.00
2022-10-12T16:55:48.879Z,17.00
2022-10-12T16:58:35.792Z,17.00
2022-10-12T17:01:22.749Z,16.90
2022-10-12T17:04:11.533Z,16.90
2022-10-12T17:06:58.435Z,16.90
2022-10-12T17:09:45.845Z,16.80
2022-10-12T17:12:34.088Z,16.80
2022-10-12T17:15:21.045Z,16.70
2022-10-12T17:18:08.469Z,16.60
2022-10-12T17:20:58.619Z,16.60
2022-10-12T17:23:45.623Z,16.60
2022-10-12T17:26:33.809Z,16.50
2022-10-12T17:29:24.505Z,16.40
2022-10-12T17:32:11.971Z,16.30
2022-10-12T17:34:58.944Z,16.40
2022-10-12T17:37:45.993Z,16.30
2022-10-12T17:40:32.931Z,16.20
2022-10-12T17:43:19.851Z,16.10
2022-10-12T17:46:07.177Z,16.10
2022-10-12T17:48:55.118Z,16.00
2022-10-12T17:51:43.133Z,15.90
2022-10-12T17:54:30.058Z,15.80
2022-10-12T17:57:17.197Z,15.80
2022-10-12T18:00:05.402Z,15.80
2022-10-12T18:02:52.522Z,15.70
2022-10-12T18:05:39.451Z,15.70
2022-10-12T18:08:26.396Z,15.70
2022-10-12T18:11:13.834Z,15.70
2022-10-12T18:14:01.002Z,15.60
2022-10-12T18:16:48.024Z,15.60
2022-10-12T18:19:34.944Z,15.60
2022-10-12T18:22:22.162Z,15.60
2022-10-12T18:25:09.197Z,15.50
2022-10-12T18:27:56.157Z,15.40
2022-10-12T18:30:48.472Z,15.30
2022-10-12T18:33:35.414Z,15.30
2022-10-12T18:36:22.845Z,15.20
2022-10-12T18:39:10.195Z,15.20
2022-10-12T18:41:57.184Z,15.20
2022-10-12T18:44:44.883Z,15.20
2022-10-12T18:47:32.048Z,15.10
2022-10-12T18:50:19.309Z,15.00
2022-10-12T18:53:06.521Z,15.10
2022-10-12T18:55:53.615Z,15.00
2022-10-12T18:58:41.834Z,14.90
2022-10-12T19:01:30.740Z,14.80
2022-10-12T19:04:17.809Z,14.80
2022-10-12T19:07:04.753Z,14.80
2022-10-12T19:09:51.868Z,14.80
2022-10-12T19:12:43.359Z,14.80
2022-10-12T19:15:35.336Z,14.80
2022-10-12T19:18:22.252Z,14.80
2022-10-12T19:21:15.435Z,14.80
2022-10-12T19:24:03.997Z,14.70
2022-10-12T19:26:51.360Z,14.70
2022-10-12T19:29:41.298Z,14.70
2022-10-12T19:32:33.396Z,14.70
2022-10-12T19:35:20.689Z,14.60
2022-10-12T19:38:07.648Z,14.60
2022-10-12T19:40:54.651Z,14.70
2022-10-12T19:43:45.129Z,14.60
2022-10-12T19:46:32.754Z,14.60
2022-10-12T19:49:20.313Z,14.50
2022-10-12T19:52:07.280Z,14.40
2022-10-12T19:54:54.185Z,14.40
2022-10-12T19:57:42.992Z,14.30
2022-10-12T20:00:32.420Z,14.20
2022-10-12T20:03:19.368Z,14.10
2022-10-12T20:06:09.194Z,14.10
2022-10-12T20:08:58.949Z,14.10
2022-10-12T20:11:45.858Z,14.00
2022-10-12T20:14:32.820Z,14.00
2022-10-12T20:17:19.759Z,13.90
2022-10-12T20:20:07.655Z,13.90
2022-10-12T20:22:54.644Z,13.90
2022-10-12T20:25:43.016Z,13.80
2022-10-12T20:28:29.980Z,13.70
2022-10-12T20:31:19.200Z,13.70
2022-10-12T20:34:06.221Z,13.70
2022-10-12T20:36:53.120Z,13.70
2022-10-12T20:39:40.283Z,13.70
2022-10-12T20:42:27.666Z,13.70
2022-10-12T20:45:15.148Z,13.70
2022-10-12T20:48:02.208Z,13.70
2022-10-12T20:50:49.303Z,13.70
2022-10-12T20:53:37.592Z,13.70
2022-10-12T20:56:24.801Z,13.70
2022-10-12T20:59:11.799Z,13.70
2022-10-12T21:01:58.791Z,13.70
2022-10-12T21:04:48.030Z,13.70
2022-10-12T21:07:35.768Z,13.70
2022-10-12T21:10:22.681Z,13.70
2022-10-12T21:13:09.619Z,13.70
2022-10-12T21:15:56.902Z,13.60
2022-10-12T21:18:43.914Z,13.50
2022-10-12T21:21:31.019Z,13.50
2022-10-12T21:24:18.112Z,13.40
2022-10-12T21:27:05.072Z,13.40
2022-10-12T21:29:52.046Z,13.40
2022-10-12T21:32:38.949Z,13.40
2022-10-12T21:35:25.867Z,13.30
2022-10-12T21:38:12.852Z,13.30
2022-10-12T21:40:59.842Z,13.30
2022-10-12T21:43:48.899Z,13.30
2022-10-12T21:46:36.480Z,13.30
2022-10-12T21:49:23.418Z,13.30
2022-10-12T21:52:10.468Z,13.20
2022-10-12T21:54:57.402Z,13.20
2022-10-12T21:57:44.860Z,13.20
2022-10-12T22:00:31.834Z,13.20
2022-10-12T22:03:18.831Z,13.20
2022-10-12T22:06:06.101Z,13.20
2022-10-12T22:09:12.206Z,13.20
2022-10-12T22:11:59.114Z,13.10
2022-10-12T22:14:46.038Z,13.10
2022-10-12T22:17:34.692Z,13.10
2022-10-12T22:20:21.729Z,13.10
2022-10-12T22:23:08.679Z,13.10
2022-10-12T22:26:03.839Z,13.10
2022-10-12T22:28:50.837Z,13.10
2022-10-12T22:31:39.970Z,13.10
2022-10-12T22:34:26.968Z,13.10
2022-10-12T22:37:13.891Z,13.10
2022-10-12T22:40:00.820Z,13.10
2022-10-12T22:42:47.927Z,13.10
2022-10-12T22:45:34.885Z,13.20
2022-10-12T22:48:23.531Z,13.20
2022-10-12T22:51:14.248Z,13.20
2022-10-12T22:54:03.005Z,13.20
2022-10-12T22:56:51.307Z,13.20
2022-10-12T22:59:38.387Z,13.20
2022-10-12T23:02:25.317Z,13.20
2022-10-12T23:05:12.352Z,13.10
2022-10-12T23:07:59.507Z,13.10
2022-10-12T23:10:46.462Z,13.10
2022-10-12T23:13:34.527Z,13.10
2022-10-12T23:16:27.862Z,13.10
2022-10-12T23:19:14.871Z,13.00
2022-10-12T23:22:01.824Z,13.00
2022-10-12T23:24:48.729Z,12.90
2022-10-12T23:27:35.720Z,12.80
2022-10-12T23:30:22.621Z,12.80
2022-10-12T23:33:09.526Z,12.80
2022-10-12T23:35:58.255Z,12.80
2022-10-12T23:38:45.300Z,12.70
2022-10-12T23:41:32.692Z,12.60
2022-10-12T23:44:19.790Z,12.60
2022-10-12T23:47:06.800Z,12.60
2022-10-12T23:49:53.761Z,12.60
2022-10-12T23:52:40.705Z,12.50
2022-10-12T23:55:27.659Z,12.60
2022-10-12T23:58:15.008Z,12.60
